createdAt,value
2019-03-25T00:00:46.211Z,97522.50
2019-03-25T00:01:50.158Z,97516.27
2019-03-25T00:02:53.787Z,97516.27
2019-03-25T00:03:57.803Z,97506.48
2019-03-25T00:05:01.437Z,97514.09
2019-03-25T00:06:05.068Z,97511.66
2019-03-25T00:07:08.741Z,97509.53
2019-03-25T00:08:12.376Z,97511.46
2019-03-25T00:09:16.012Z,97512.14
2019-03-25T00:10:19.646Z,97508.63
2019-03-25T00:11:23.389Z,97508.63
2019-03-25T00:12:27.056Z,97513.02
2019-03-25T00:13:30.755Z,97506.56
2019-03-25T00:14:34.388Z,97506.56
2019-03-25T00:15:38.323Z,97512.63
2019-03-25T00:16:41.953Z,97509.70
2019-03-25T00:17:45.620Z,97502.06
2019-03-25T00:18:49.260Z,97510.20
2019-03-25T00:19:52.837Z,97504.61
2019-03-25T00:20:56.467Z,97504.61
2019-03-25T00:22:01.056Z,97503.64
2019-03-25T00:23:04.810Z,97503.64
2019-03-25T00:24:08.447Z,97501.64
2019-03-25T00:25:12.153Z,97501.64
2019-03-25T00:26:15.787Z,97508.25
2019-03-25T00:27:19.412Z,97508.25
2019-03-25T00:28:23.087Z,97508.50
2019-03-25T00:29:26.721Z,97508.25
2019-03-25T00:30:30.361Z,97507.45
2019-03-25T00:31:33.992Z,97504.87
2019-03-25T00:32:37.628Z,97504.87
2019-03-25T00:33:41.278Z,97499.77
2019-03-25T00:34:44.914Z,97504.23
2019-03-25T00:35:48.557Z,97496.05
2019-03-25T00:36:52.194Z,97495.38
2019-03-25T00:37:56.547Z,97495.38
2019-03-25T00:39:00.267Z,97498.06
2019-03-25T00:40:04.208Z,97498.06
2019-03-25T00:41:07.936Z,97496.80
2019-03-25T00:42:11.879Z,97499.52
2019-03-25T00:43:15.876Z,97499.52
2019-03-25T00:44:19.547Z,97499.41
2019-03-25T00:45:23.253Z,97500.52
2019-03-25T00:46:26.881Z,97500.02
2019-03-25T00:47:30.514Z,97501.61
2019-03-25T00:48:34.140Z,97497.18
2019-03-25T00:49:37.829Z,97495.84
2019-03-25T00:50:41.462Z,97493.96
2019-03-25T00:51:45.095Z,97495.47
2019-03-25T00:52:48.728Z,97494.97
2019-03-25T00:53:52.421Z,97493.71
2019-03-25T00:54:56.504Z,97493.22
2019-03-25T00:56:00.136Z,97495.42
2019-03-25T00:57:04.095Z,97495.42
2019-03-25T00:58:07.728Z,97493.30
2019-03-25T00:59:11.361Z,97495.17
2019-03-25T01:00:15.200Z,97488.91
2019-03-25T01:01:18.833Z,97490.91
2019-03-25T01:02:22.535Z,97486.19
2019-03-25T01:03:26.235Z,97480.34
2019-03-25T01:04:29.900Z,97483.63
2019-03-25T01:05:33.552Z,97482.05
2019-03-25T01:06:37.187Z,97481.50
2019-03-25T01:07:40.889Z,97479.84
2019-03-25T01:08:44.826Z,97485.06
2019-03-25T01:09:48.519Z,97485.06
2019-03-25T01:10:52.195Z,97473.03
2019-03-25T01:11:55.826Z,97475.73
2019-03-25T01:12:59.532Z,97479.00
2019-03-25T01:14:03.267Z,97479.98
2019-03-25T01:15:08.098Z,97476.77
2019-03-25T01:16:11.769Z,97479.44
2019-03-25T01:17:15.440Z,97479.11
2019-03-25T01:18:19.075Z,97477.78
2019-03-25T01:19:23.319Z,97477.78
2019-03-25T01:20:27.064Z,97483.99
2019-03-25T01:21:30.802Z,97481.66
2019-03-25T01:22:34.437Z,97484.58
2019-03-25T01:23:38.069Z,97482.45
2019-03-25T01:24:41.700Z,97487.00
2019-03-25T01:25:45.331Z,97480.14
2019-03-25T01:26:49.008Z,97485.78
2019-03-25T01:27:52.639Z,97488.57
2019-03-25T01:28:56.426Z,97483.84
2019-03-25T01:30:00.015Z,97484.67
2019-03-25T01:31:03.652Z,97486.08
2019-03-25T01:32:07.321Z,97480.58
2019-03-25T01:33:10.958Z,97481.48
2019-03-25T01:34:14.589Z,97479.42
2019-03-25T01:35:18.272Z,97480.25
2019-03-25T01:36:21.854Z,97482.42
2019-03-25T01:37:25.643Z,97479.03
2019-03-25T01:38:29.275Z,97477.45
2019-03-25T01:39:32.913Z,97475.86
2019-03-25T01:40:36.552Z,97489.53
2019-03-25T01:41:42.180Z,97481.62
2019-03-25T01:42:45.924Z,97477.66
2019-03-25T01:43:49.555Z,97477.48
2019-03-25T01:44:53.176Z,97483.66
2019-03-25T01:45:56.814Z,97480.73
2019-03-25T01:47:00.593Z,97482.71
2019-03-25T01:48:04.262Z,97478.48
2019-03-25T01:49:07.897Z,97479.28
2019-03-25T01:50:11.630Z,97483.57
2019-03-25T01:51:15.656Z,97478.77
2019-03-25T01:52:19.290Z,97480.40
2019-03-25T01:53:22.964Z,97479.06
2019-03-25T01:54:26.663Z,97476.14
2019-03-25T01:55:30.212Z,97475.92
2019-03-25T01:56:33.846Z,97474.59
2019-03-25T01:57:37.471Z,97473.83
2019-03-25T01:58:41.471Z,97474.44
2019-03-25T01:59:45.105Z,97480.03
2019-03-25T02:00:48.770Z,97478.70
2019-03-25T02:01:52.390Z,97473.94
2019-03-25T02:02:55.985Z,97477.46
2019-03-25T02:03:59.654Z,97482.30
2019-03-25T02:05:03.407Z,97476.41
2019-03-25T02:06:07.135Z,97478.80
2019-03-25T02:07:10.696Z,97478.03
2019-03-25T02:08:14.711Z,97476.23
2019-03-25T02:09:18.386Z,97474.13
2019-03-25T02:10:22.020Z,97470.99
2019-03-25T02:11:25.646Z,97468.07
2019-03-25T02:12:29.345Z,97468.90
2019-03-25T02:13:33.044Z,97462.23
2019-03-25T02:14:36.731Z,97467.56
2019-03-25T02:15:40.364Z,97463.84
2019-03-25T02:16:44.002Z,97462.58
2019-03-25T02:17:47.626Z,97456.20
2019-03-25T02:18:51.246Z,97458.71
2019-03-25T02:19:54.915Z,97458.37
2019-03-25T02:20:58.942Z,97456.55
2019-03-25T02:22:02.655Z,97460.30
2019-03-25T02:23:06.608Z,97466.21
2019-03-25T02:24:10.402Z,97464.05
2019-03-25T02:25:24.790Z,97467.52
2019-03-25T02:26:19.443Z,97469.10
2019-03-25T02:27:23.079Z,97463.23
2019-03-25T02:28:26.710Z,97460.78
2019-03-25T02:29:30.347Z,97458.37
2019-03-25T02:30:34.085Z,97464.75
2019-03-25T02:31:37.792Z,97459.95
2019-03-25T02:32:41.435Z,97459.45
2019-03-25T02:33:45.014Z,97458.11
2019-03-25T02:34:48.575Z,97461.35
2019-03-25T02:35:52.259Z,97458.43
2019-03-25T02:36:56.277Z,97460.78
2019-03-25T02:37:59.942Z,97462.37
2019-03-25T02:39:05.387Z,97463.70
2019-03-25T02:40:09.015Z,97465.03
2019-03-25T02:41:12.693Z,97462.91
2019-03-25T02:42:16.326Z,97464.56
2019-03-25T02:43:19.943Z,97460.69
2019-03-25T02:44:23.582Z,97465.77
2019-03-25T02:45:27.217Z,97458.48
2019-03-25T02:46:30.884Z,97463.39
2019-03-25T02:47:34.524Z,97461.78
2019-03-25T02:48:38.148Z,97462.28
2019-03-25T02:49:41.806Z,97462.03
2019-03-25T02:50:45.430Z,97465.30
2019-03-25T02:51:49.113Z,97463.45
2019-03-25T02:52:52.742Z,97466.94
2019-03-25T02:53:56.470Z,97464.05
2019-03-25T02:55:00.648Z,97465.61
2019-03-25T02:56:04.342Z,97467.20
2019-03-25T02:57:07.985Z,97466.20
2019-03-25T02:58:11.610Z,97463.63
2019-03-25T02:59:15.254Z,97464.00
2019-03-25T03:00:38.844Z,97460.53
2019-03-25T03:01:42.719Z,97463.43
2019-03-25T03:02:46.389Z,97466.64
2019-03-25T03:03:50.001Z,97460.88
2019-03-25T03:04:53.638Z,97462.20
2019-03-25T03:05:57.596Z,97464.39
2019-03-25T03:07:01.226Z,97456.94
2019-03-25T03:08:05.205Z,97455.83
2019-03-25T03:09:10.417Z,97456.39
2019-03-25T03:10:14.154Z,97457.47
2019-03-25T03:11:17.780Z,97451.09
2019-03-25T03:12:21.447Z,97451.09
2019-03-25T03:13:25.093Z,97447.16
2019-03-25T03:14:28.717Z,97453.81
2019-03-25T03:15:32.440Z,97455.63
2019-03-25T03:16:36.067Z,97448.71
2019-03-25T03:17:39.809Z,97453.50
2019-03-25T03:18:43.458Z,97448.97
2019-03-25T03:19:47.122Z,97454.04
2019-03-25T03:20:50.727Z,97454.64
2019-03-25T03:21:54.363Z,97454.89
2019-03-25T03:22:58.329Z,97454.13
2019-03-25T03:24:02.008Z,97457.38
2019-03-25T03:25:06.093Z,97450.98
2019-03-25T03:26:09.726Z,97447.16
2019-03-25T03:27:13.356Z,97442.36
2019-03-25T03:28:16.992Z,97447.18
2019-03-25T03:29:20.665Z,97446.92
2019-03-25T03:30:24.731Z,97443.47
2019-03-25T03:31:28.403Z,97446.13
2019-03-25T03:32:31.958Z,97440.60
2019-03-25T03:33:35.637Z,97439.06
2019-03-25T03:34:39.383Z,97436.89
2019-03-25T03:35:46.343Z,97434.77
2019-03-25T03:36:48.707Z,97434.22
2019-03-25T03:37:52.339Z,97434.77
2019-03-25T03:38:55.977Z,97427.08
2019-03-25T03:39:59.653Z,97425.49
2019-03-25T03:41:03.506Z,97435.08
2019-03-25T03:42:07.467Z,97431.10
2019-03-25T03:43:11.203Z,97421.52
2019-03-25T03:44:14.809Z,97428.98
2019-03-25T03:45:18.483Z,97432.69
2019-03-25T03:46:22.122Z,97433.74
2019-03-25T03:47:25.779Z,97431.30
2019-03-25T03:48:29.392Z,97435.30
2019-03-25T03:49:33.028Z,97430.82
2019-03-25T03:50:37.056Z,97427.90
2019-03-25T03:51:40.703Z,97432.44
2019-03-25T03:52:45.040Z,97436.17
2019-03-25T03:53:48.651Z,97437.02
2019-03-25T03:54:52.916Z,97438.89
2019-03-25T03:56:11.439Z,97438.89
2019-03-25T03:57:02.161Z,97442.04
2019-03-25T03:58:05.788Z,97438.64
2019-03-25T03:59:09.629Z,97441.30
2019-03-25T04:00:16.178Z,97436.31
2019-03-25T04:01:19.855Z,97433.13
2019-03-25T04:02:23.560Z,97431.60
2019-03-25T04:03:27.146Z,97429.22
2019-03-25T04:04:30.751Z,97436.73
2019-03-25T04:05:34.380Z,97429.55
2019-03-25T04:06:38.130Z,97433.03
2019-03-25T04:07:41.778Z,97427.70
2019-03-25T04:08:45.401Z,97434.63
2019-03-25T04:09:49.324Z,97433.88
2019-03-25T04:10:52.957Z,97433.70
2019-03-25T04:11:56.641Z,97426.05
2019-03-25T04:13:00.680Z,97426.41
2019-03-25T04:14:04.303Z,97426.45
2019-03-25T04:15:08.208Z,97423.22
2019-03-25T04:16:11.851Z,97424.28
2019-03-25T04:17:15.565Z,97418.47
2019-03-25T04:18:19.237Z,97428.06
2019-03-25T04:19:22.861Z,97425.13
2019-03-25T04:20:26.606Z,97425.13
2019-03-25T04:21:30.233Z,97417.63
2019-03-25T04:22:33.872Z,97418.47
2019-03-25T04:23:37.507Z,97420.61
2019-03-25T04:24:41.142Z,97421.69
2019-03-25T04:25:44.764Z,97422.22
2019-03-25T04:26:48.395Z,97420.64
2019-03-25T04:27:52.187Z,97420.69
2019-03-25T04:28:55.814Z,97414.05
2019-03-25T04:29:59.809Z,97421.81
2019-03-25T04:31:03.545Z,97423.16
2019-03-25T04:32:07.260Z,97421.34
2019-03-25T04:33:11.029Z,97428.28
2019-03-25T04:34:14.741Z,97424.29
2019-03-25T04:35:18.387Z,97425.90
2019-03-25T04:36:22.003Z,97426.23
2019-03-25T04:37:25.726Z,97429.14
2019-03-25T04:38:29.424Z,97426.41
2019-03-25T04:39:33.048Z,97424.17
2019-03-25T04:40:36.777Z,97428.28
2019-03-25T04:41:40.429Z,97424.87
2019-03-25T04:42:44.043Z,97430.90
2019-03-25T04:43:47.727Z,97424.80
2019-03-25T04:44:51.349Z,97425.06
2019-03-25T04:45:54.983Z,97431.16
2019-03-25T04:46:58.619Z,97432.65
2019-03-25T04:48:02.255Z,97426.92
2019-03-25T04:49:05.935Z,97427.02
2019-03-25T04:50:09.862Z,97434.51
2019-03-25T04:51:13.504Z,97434.54
2019-03-25T04:52:17.070Z,97440.91
2019-03-25T04:53:20.719Z,97439.25
2019-03-25T04:54:24.401Z,97434.62
2019-03-25T04:55:28.030Z,97431.66
2019-03-25T04:56:39.537Z,97430.59
2019-03-25T04:57:37.104Z,97426.55
2019-03-25T04:58:40.811Z,97431.20
2019-03-25T04:59:44.522Z,97428.73
2019-03-25T05:00:48.176Z,97427.89
2019-03-25T05:01:52.176Z,97425.28
2019-03-25T05:02:56.729Z,97423.16
2019-03-25T05:04:00.373Z,97425.89
2019-03-25T05:05:04.072Z,97425.97
2019-03-25T05:06:07.789Z,97431.63
2019-03-25T05:07:11.379Z,97427.75
2019-03-25T05:08:15.039Z,97424.56
2019-03-25T05:09:18.669Z,97428.81
2019-03-25T05:10:22.352Z,97426.66
2019-03-25T05:11:30.530Z,97428.78
2019-03-25T05:12:31.360Z,97430.63
2019-03-25T05:13:35.010Z,97432.00
2019-03-25T05:14:38.658Z,97432.33
2019-03-25T05:15:42.706Z,97434.48
2019-03-25T05:16:46.824Z,97435.54
2019-03-25T05:17:50.466Z,97433.18
2019-03-25T05:18:54.034Z,97430.47
2019-03-25T05:19:57.670Z,97431.50
2019-03-25T05:21:01.343Z,97432.06
2019-03-25T05:22:04.984Z,97430.23
2019-03-25T05:23:08.634Z,97424.90
2019-03-25T05:24:12.276Z,97431.27
2019-03-25T05:25:15.916Z,97426.48
2019-03-25T05:26:19.562Z,97423.10
2019-03-25T05:27:23.223Z,97430.00
2019-03-25T05:28:26.862Z,97428.91
2019-03-25T05:29:30.506Z,97425.43
2019-03-25T05:30:34.239Z,97425.16
2019-03-25T05:31:38.211Z,97426.88
2019-03-25T05:32:42.215Z,97428.73
2019-03-25T05:33:45.859Z,97428.73
2019-03-25T05:34:49.429Z,97426.31
2019-03-25T05:35:52.999Z,97429.16
2019-03-25T05:36:56.695Z,97428.67
2019-03-25T05:38:00.338Z,97421.08
2019-03-25T05:39:05.655Z,97422.67
2019-03-25T05:40:09.297Z,97420.81
2019-03-25T05:41:12.799Z,97417.33
2019-03-25T05:42:16.408Z,97417.33
2019-03-25T05:43:21.200Z,97422.87
2019-03-25T05:44:25.070Z,97422.56
2019-03-25T05:45:33.298Z,97417.78
2019-03-25T05:46:37.141Z,97421.77
2019-03-25T05:47:40.880Z,97417.52
2019-03-25T05:48:44.525Z,97418.84
2019-03-25T05:49:48.173Z,97414.60
2019-03-25T05:50:51.817Z,97415.93
2019-03-25T05:51:55.465Z,97411.11
2019-03-25T05:52:59.153Z,97410.80
2019-03-25T05:54:02.868Z,97405.76
2019-03-25T05:55:07.608Z,97403.68
2019-03-25T05:56:11.252Z,97406.37
2019-03-25T05:57:14.888Z,97405.27
2019-03-25T05:58:18.603Z,97403.29
2019-03-25T05:59:22.261Z,97404.42
2019-03-25T06:00:27.552Z,97405.55
2019-03-25T06:01:31.372Z,97408.47
2019-03-25T06:02:35.018Z,97404.06
2019-03-25T06:03:38.709Z,97404.95
2019-03-25T06:04:42.354Z,97409.22
2019-03-25T06:05:46.076Z,97400.92
2019-03-25T06:06:52.052Z,97401.14
2019-03-25T06:07:55.125Z,97396.41
2019-03-25T06:08:58.775Z,97402.73
2019-03-25T06:10:02.427Z,97405.08
2019-03-25T06:11:06.109Z,97408.30
2019-03-25T06:12:09.755Z,97399.92
2019-03-25T06:13:13.743Z,97408.52
2019-03-25T06:14:17.388Z,97402.94
2019-03-25T06:15:21.038Z,97405.23
2019-03-25T06:16:24.731Z,97405.75
2019-03-25T06:17:28.378Z,97396.64
2019-03-25T06:18:32.038Z,97401.58
2019-03-25T06:19:35.661Z,97398.53
2019-03-25T06:20:39.665Z,97401.45
2019-03-25T06:21:43.344Z,97398.59
2019-03-25T06:22:47.039Z,97397.20
2019-03-25T06:23:50.660Z,97390.81
2019-03-25T06:24:54.299Z,97397.73
2019-03-25T06:25:57.945Z,97394.61
2019-03-25T06:27:01.499Z,97397.79
2019-03-25T06:28:05.179Z,97389.55
2019-03-25T06:29:08.886Z,97392.02
2019-03-25T06:30:12.818Z,97389.42
2019-03-25T06:31:16.455Z,97388.75
2019-03-25T06:32:20.102Z,97387.03
2019-03-25T06:33:23.792Z,97388.75
2019-03-25T06:34:27.437Z,97388.34
2019-03-25T06:35:31.070Z,97382.37
2019-03-25T06:36:34.728Z,97387.45
2019-03-25T06:37:38.376Z,97380.85
2019-03-25T06:38:42.041Z,97382.86
2019-03-25T06:39:45.679Z,97386.17
2019-03-25T06:40:49.407Z,97377.08
2019-03-25T06:41:52.959Z,97381.28
2019-03-25T06:42:56.603Z,97376.17
2019-03-25T06:44:00.279Z,97382.84
2019-03-25T06:45:05.436Z,97378.33
2019-03-25T06:46:09.067Z,97372.71
2019-03-25T06:47:12.802Z,97378.40
2019-03-25T06:48:16.436Z,97370.34
2019-03-25T06:49:20.074Z,97370.77
2019-03-25T06:50:23.716Z,97371.23
2019-03-25T06:51:27.345Z,97369.06
2019-03-25T06:52:30.986Z,97368.43
2019-03-25T06:53:34.621Z,97368.92
2019-03-25T06:54:38.305Z,97368.55
2019-03-25T06:55:41.980Z,97365.13
2019-03-25T06:56:45.699Z,97365.13
2019-03-25T06:57:49.328Z,97363.33
2019-03-25T06:58:52.973Z,97355.30
2019-03-25T06:59:56.654Z,97360.13
2019-03-25T07:01:00.289Z,97356.13
2019-03-25T07:02:03.924Z,97359.78
2019-03-25T07:03:07.900Z,97352.65
2019-03-25T07:04:11.538Z,97350.67
2019-03-25T07:05:15.226Z,97346.77
2019-03-25T07:06:18.868Z,97348.35
2019-03-25T07:07:22.492Z,97342.29
2019-03-25T07:08:26.142Z,97346.16
2019-03-25T07:09:29.786Z,97336.09
2019-03-25T07:10:35.174Z,97337.52
2019-03-25T07:11:40.230Z,97331.90
2019-03-25T07:12:43.864Z,97332.80
2019-03-25T07:13:47.500Z,97318.94
2019-03-25T07:14:51.325Z,97318.94
2019-03-25T07:15:54.925Z,97326.78
2019-03-25T07:16:58.562Z,97321.11
2019-03-25T07:18:02.308Z,97309.91
2019-03-25T07:19:05.953Z,97309.91
2019-03-25T07:20:10.188Z,97316.09
2019-03-25T07:21:13.866Z,97311.69
2019-03-25T07:22:17.573Z,97309.66
2019-03-25T07:23:21.216Z,97309.92
2019-03-25T07:24:24.859Z,97303.45
2019-03-25T07:25:28.426Z,97303.45
2019-03-25T07:26:32.111Z,97293.25
2019-03-25T07:27:37.061Z,97267.72
2019-03-25T07:28:42.357Z,97302.31
2019-03-25T07:29:45.997Z,97302.31
2019-03-25T07:30:51.968Z,97299.28
2019-03-25T07:31:55.665Z,97299.28
2019-03-25T07:32:59.311Z,97290.89
2019-03-25T07:34:02.949Z,97297.51
2019-03-25T07:35:07.990Z,97289.33
2019-03-25T07:36:11.631Z,97289.42
2019-03-25T07:37:15.316Z,97287.74
2019-03-25T07:38:19.151Z,97284.06
2019-03-25T07:39:22.864Z,97276.88
2019-03-25T07:40:26.504Z,97279.74
2019-03-25T07:41:30.141Z,97276.34
2019-03-25T07:42:33.935Z,97276.34
2019-03-25T07:43:37.546Z,97268.83
2019-03-25T07:44:45.981Z,97268.83
2019-03-25T07:45:53.696Z,97264.84
2019-03-25T07:47:03.602Z,97266.00
2019-03-25T07:48:17.735Z,97262.91
2019-03-25T07:49:27.279Z,97258.70
2019-03-25T07:50:30.920Z,97259.86
2019-03-25T07:51:36.136Z,97260.59
2019-03-25T07:52:39.793Z,97255.41
2019-03-25T07:53:43.480Z,97257.83
2019-03-25T07:54:47.118Z,97252.59
2019-03-25T07:55:50.794Z,97246.95
2019-03-25T07:56:54.445Z,97246.70
2019-03-25T07:58:01.900Z,97247.56
2019-03-25T07:59:05.612Z,97249.72
2019-03-25T08:00:14.721Z,97244.11
2019-03-25T08:01:18.457Z,97244.77
2019-03-25T08:02:22.264Z,97243.55
2019-03-25T08:03:25.913Z,97238.59
2019-03-25T08:04:32.385Z,97238.47
2019-03-25T08:05:36.021Z,97235.78
2019-03-25T08:06:39.656Z,97233.52
2019-03-25T08:07:45.000Z,97233.17
2019-03-25T08:08:48.616Z,97228.84
2019-03-25T08:09:53.866Z,97223.72
2019-03-25T08:10:57.406Z,97217.16
2019-03-25T08:12:02.357Z,97222.20
2019-03-25T08:13:06.303Z,97214.48
2019-03-25T08:14:10.202Z,97213.32
2019-03-25T08:15:13.981Z,97210.70
2019-03-25T08:16:17.812Z,97203.09
2019-03-25T08:17:21.507Z,97200.75
2019-03-25T08:18:25.257Z,97204.06
2019-03-25T08:19:28.935Z,97201.61
2019-03-25T08:20:32.631Z,97198.36
2019-03-25T08:21:36.268Z,97201.20
2019-03-25T08:22:39.903Z,97198.61
2019-03-25T08:23:43.511Z,97188.42
2019-03-25T08:24:47.179Z,97194.75
2019-03-25T08:25:51.356Z,97191.16
2019-03-25T08:26:56.236Z,97195.49
2019-03-25T08:28:00.625Z,97190.02
2019-03-25T08:29:05.455Z,97183.16
2019-03-25T08:30:09.591Z,97183.50
2019-03-25T08:31:13.291Z,97184.42
2019-03-25T08:32:16.933Z,97180.84
2019-03-25T08:33:22.242Z,97178.74
2019-03-25T08:34:25.872Z,97169.77
2019-03-25T08:35:32.116Z,97175.40
2019-03-25T08:36:35.916Z,97171.88
2019-03-25T08:37:39.556Z,97172.86
2019-03-25T08:38:43.189Z,97162.64
2019-03-25T08:39:47.058Z,97158.02
2019-03-25T08:40:50.931Z,97157.48
2019-03-25T08:41:54.563Z,97155.12
2019-03-25T08:42:58.209Z,97151.58
2019-03-25T08:44:02.179Z,97147.19
2019-03-25T08:45:06.615Z,97150.26
2019-03-25T08:46:11.751Z,97140.85
2019-03-25T08:47:16.559Z,97142.34
2019-03-25T08:48:20.226Z,97141.05
2019-03-25T08:49:23.882Z,97146.77
2019-03-25T08:50:27.537Z,97141.36
2019-03-25T08:51:32.451Z,97132.27
2019-03-25T08:52:37.252Z,97133.23
2019-03-25T08:53:40.923Z,97133.11
2019-03-25T08:54:44.682Z,97131.33
2019-03-25T08:55:48.303Z,97130.88
2019-03-25T08:56:54.078Z,97124.47
2019-03-25T08:57:57.642Z,97122.45
2019-03-25T08:59:05.687Z,97127.05
2019-03-25T09:00:15.732Z,97123.84
2019-03-25T09:01:23.295Z,97117.02
2019-03-25T09:02:31.212Z,97113.70
2019-03-25T09:03:34.888Z,97114.47
2019-03-25T09:04:39.798Z,97106.30
2019-03-25T09:05:47.625Z,97105.16
2019-03-25T09:06:53.695Z,97102.45
2019-03-25T09:08:00.719Z,97101.06
2019-03-25T09:09:07.773Z,97100.30
2019-03-25T09:10:12.404Z,97097.11
2019-03-25T09:11:18.556Z,97091.91
2019-03-25T09:12:43.926Z,97089.31
2019-03-25T09:13:47.616Z,97078.98
2019-03-25T09:14:51.266Z,97079.61
2019-03-25T09:15:54.943Z,97072.67
2019-03-25T09:17:00.516Z,97072.33
2019-03-25T09:18:04.159Z,97070.30
2019-03-25T09:19:07.880Z,97072.56
2019-03-25T09:20:12.210Z,97068.11
2019-03-25T09:21:15.853Z,97062.95
2019-03-25T09:22:19.487Z,97066.94
2019-03-25T09:23:23.197Z,97053.41
2019-03-25T09:24:26.876Z,97058.61
2019-03-25T09:25:30.588Z,97057.95
2019-03-25T09:26:34.227Z,97056.83
2019-03-25T09:27:37.874Z,97059.41
2019-03-25T09:28:41.580Z,97050.02
2019-03-25T09:29:45.340Z,97045.58
2019-03-25T09:30:55.022Z,97048.80
2019-03-25T09:31:58.670Z,97047.58
2019-03-25T09:33:02.320Z,97045.71
2019-03-25T09:34:06.390Z,97040.33
2019-03-25T09:35:10.321Z,97041.30
2019-03-25T09:36:14.304Z,97042.34
2019-03-25T09:37:17.936Z,97038.33
2019-03-25T09:38:21.582Z,97036.87
2019-03-25T09:39:25.144Z,97039.90
2019-03-25T09:40:28.785Z,97039.44
2019-03-25T09:41:32.435Z,97034.20
2019-03-25T09:42:36.072Z,97031.11
2019-03-25T09:43:39.733Z,97028.32
2019-03-25T09:44:43.418Z,97015.30
2019-03-25T09:45:47.093Z,97019.48
2019-03-25T09:46:50.735Z,97022.70
2019-03-25T09:47:54.365Z,97025.77
2019-03-25T09:48:58.133Z,97014.70
2019-03-25T09:50:01.778Z,97010.64
2019-03-25T09:51:05.645Z,97006.23
2019-03-25T09:52:09.279Z,97004.02
2019-03-25T09:53:12.914Z,96996.34
2019-03-25T09:54:16.566Z,96995.17
2019-03-25T09:55:20.202Z,96995.39
2019-03-25T09:56:23.999Z,96993.41
2019-03-25T09:57:27.639Z,96993.08
2019-03-25T09:58:36.354Z,96985.84
2019-03-25T09:59:36.661Z,96979.30
2019-03-25T10:00:40.300Z,96983.97
2019-03-25T10:01:43.971Z,96974.26
2019-03-25T10:02:47.697Z,96973.15
2019-03-25T10:03:51.333Z,96975.75
2019-03-25T10:04:54.965Z,96969.04
2019-03-25T10:05:58.600Z,96963.30
2019-03-25T10:07:02.474Z,96961.84
2019-03-25T10:08:06.108Z,96963.98
2019-03-25T10:09:10.708Z,96958.02
2019-03-25T10:10:14.551Z,96949.44
2019-03-25T10:11:18.629Z,96953.08
2019-03-25T10:12:22.272Z,96945.58
2019-03-25T10:13:25.900Z,96947.91
2019-03-25T10:14:29.525Z,96941.82
2019-03-25T10:15:33.160Z,96947.70
2019-03-25T10:16:36.798Z,96936.68
2019-03-25T10:17:40.508Z,96936.49
2019-03-25T10:18:44.101Z,96939.60
2019-03-25T10:19:47.740Z,96935.36
2019-03-25T10:20:51.372Z,96931.19
2019-03-25T10:21:55.078Z,96923.70
2019-03-25T10:22:58.764Z,96929.36
2019-03-25T10:24:02.518Z,96927.73
2019-03-25T10:25:07.558Z,96925.37
2019-03-25T10:26:11.254Z,96918.06
2019-03-25T10:27:14.886Z,96914.15
2019-03-25T10:28:18.558Z,96915.17
2019-03-25T10:29:22.181Z,96914.87
2019-03-25T10:30:26.446Z,96915.92
2019-03-25T10:31:30.082Z,96909.72
2019-03-25T10:32:33.719Z,96907.61
2019-03-25T10:33:37.381Z,96903.66
2019-03-25T10:34:41.009Z,96900.07
2019-03-25T10:35:44.662Z,96897.45
2019-03-25T10:36:48.296Z,96905.30
2019-03-25T10:37:51.927Z,96893.66
2019-03-25T10:38:55.607Z,96893.17
2019-03-25T10:39:59.241Z,96893.33
2019-03-25T10:41:02.946Z,96890.93
2019-03-25T10:42:06.594Z,96895.31
2019-03-25T10:43:10.831Z,96892.55
2019-03-25T10:44:14.513Z,96886.59
2019-03-25T10:45:18.149Z,96884.50
2019-03-25T10:46:21.781Z,96879.55
2019-03-25T10:47:25.414Z,96882.04
2019-03-25T10:48:29.261Z,96880.03
2019-03-25T10:49:33.295Z,96875.64
2019-03-25T10:50:36.932Z,96868.49
2019-03-25T10:51:40.569Z,96868.20
2019-03-25T10:52:44.281Z,96867.81
2019-03-25T10:53:47.953Z,96869.37
2019-03-25T10:54:51.715Z,96864.11
2019-03-25T10:55:55.396Z,96864.06
2019-03-25T10:56:58.971Z,96860.04
2019-03-25T10:58:02.693Z,96858.56
2019-03-25T10:59:06.369Z,96856.54
2019-03-25T11:00:11.981Z,96850.44
2019-03-25T11:01:15.615Z,96849.25
2019-03-25T11:02:19.251Z,96843.33
2019-03-25T11:03:22.874Z,96840.27
2019-03-25T11:04:26.564Z,96839.59
2019-03-25T11:05:30.198Z,96829.61
2019-03-25T11:06:33.844Z,96824.70
2019-03-25T11:07:37.701Z,96829.94
2019-03-25T11:08:41.408Z,96823.59
2019-03-25T11:09:45.042Z,96819.66
2019-03-25T11:10:48.674Z,96815.63
2019-03-25T11:11:52.300Z,96816.20
2019-03-25T11:12:55.936Z,96817.94
2019-03-25T11:13:59.653Z,96819.11
2019-03-25T11:15:04.324Z,96810.92
2019-03-25T11:16:10.223Z,96805.20
2019-03-25T11:17:13.414Z,96801.01
2019-03-25T11:18:17.067Z,96804.76
2019-03-25T11:19:20.700Z,96797.16
2019-03-25T11:20:24.792Z,96794.00
2019-03-25T11:21:28.423Z,96787.52
2019-03-25T11:22:32.061Z,96782.75
2019-03-25T11:23:35.686Z,96784.33
2019-03-25T11:24:39.318Z,96779.58
2019-03-25T11:25:43.501Z,96783.22
2019-03-25T11:26:47.199Z,96775.89
2019-03-25T11:27:54.397Z,96765.17
2019-03-25T11:28:56.503Z,96770.55
2019-03-25T11:30:00.298Z,96764.94
2019-03-25T11:31:03.989Z,96761.89
2019-03-25T11:32:07.956Z,96754.14
2019-03-25T11:33:11.591Z,96754.22
2019-03-25T11:34:15.230Z,96752.44
2019-03-25T11:35:18.865Z,96747.27
2019-03-25T11:36:22.393Z,96740.73
2019-03-25T11:37:26.032Z,96742.06
2019-03-25T11:38:29.668Z,96739.35
2019-03-25T11:39:33.315Z,96739.35
2019-03-25T11:40:36.940Z,96733.45
2019-03-25T11:41:40.907Z,96732.55
2019-03-25T11:42:44.551Z,96725.11
2019-03-25T11:43:48.182Z,96727.52
2019-03-25T11:44:51.810Z,96726.44
2019-03-25T11:45:55.517Z,96718.17
2019-03-25T11:46:59.198Z,96722.87
2019-03-25T11:48:02.815Z,96718.06
2019-03-25T11:49:06.455Z,96718.95
2019-03-25T11:50:10.684Z,96717.17
2019-03-25T11:51:14.315Z,96712.23
2019-03-25T11:52:18.006Z,96709.51
2019-03-25T11:53:21.649Z,96710.80
2019-03-25T11:54:25.287Z,96707.20
2019-03-25T11:55:29.000Z,96703.42
2019-03-25T11:56:32.656Z,96701.41
2019-03-25T11:57:36.338Z,96694.14
2019-03-25T11:58:39.994Z,96700.39
2019-03-25T11:59:43.630Z,96693.40
2019-03-25T12:00:47.280Z,96688.73
2019-03-25T12:01:51.283Z,96691.14
2019-03-25T12:02:54.991Z,96682.53
2019-03-25T12:03:58.621Z,96681.12
2019-03-25T12:05:02.342Z,96677.52
2019-03-25T12:06:05.986Z,96678.61
2019-03-25T12:07:09.625Z,96670.00
2019-03-25T12:08:13.303Z,96673.31
2019-03-25T12:09:17.270Z,96671.83
2019-03-25T12:10:20.907Z,96663.16
2019-03-25T12:11:24.538Z,96654.08
2019-03-25T12:12:28.211Z,96663.69
2019-03-25T12:13:31.846Z,96657.42
2019-03-25T12:14:35.579Z,96659.57
2019-03-25T12:15:39.587Z,96657.50
2019-03-25T12:16:43.226Z,96651.56
2019-03-25T12:17:46.928Z,96649.96
2019-03-25T12:18:50.561Z,96646.39
2019-03-25T12:19:54.626Z,96646.28
2019-03-25T12:20:58.248Z,96640.55
2019-03-25T12:22:01.892Z,96644.55
2019-03-25T12:23:05.527Z,96637.06
2019-03-25T12:24:09.203Z,96635.81
2019-03-25T12:25:12.833Z,96635.83
2019-03-25T12:26:16.473Z,96636.78
2019-03-25T12:27:20.146Z,96630.25
2019-03-25T12:28:23.747Z,96627.64
2019-03-25T12:29:30.462Z,96620.58
2019-03-25T12:30:33.149Z,96624.89
2019-03-25T12:31:36.784Z,96620.01